ilmateenistus.ee keskkonnaagentuur.ee
EETN Tallinna lennuväli
FTEO31 EETN 262300
TAF EETN 262329Z 2700/2724 VRB02KT CAVOK BECMG 2704/2706 03012KT
    BECMG 2716/2718 VRB02KT=

METAR EETN 270250Z 30004KT CAVOK 15/11 Q1025 =
Tallinna lennuväli
EEKA Kärdla lennuväli
METAR EEKA 270250Z NIL=
Kärdla lennuväli
EEKE Kuressaare lennuväli
METAR EEKE 270250Z AUTO 01004KT 9999NDV NCD 12/09 Q1027=
Kuressaare lennuväli
EEPU Pärnu lennuväli
METAR EEPU 270250Z NIL=
Pärnu lennuväli
EETU Tartu lennuväli
METAR EETU 270250Z AUTO 27008KT 9999 NCD 16/09 Q1025=
Tartu lennuväli
EEEI Ämari lennuväli
METAR EEEI 270250Z 23003KT CAVOK 08/07 Q1026 NOSIG=
Ämari lennuväli